createdAt,value
2022-09-20T00:02:43.609Z,0.57
2022-09-20T00:05:43.651Z,0.77
2022-09-20T00:08:43.631Z,0.52
2022-09-20T00:11:43.693Z,0.6
2022-09-20T00:14:43.663Z,0.7
2022-09-20T00:17:43.658Z,0.65
2022-09-20T00:20:43.669Z,0.69
2022-09-20T00:23:43.660Z,0.46
2022-09-20T00:26:43.641Z,0.54
2022-09-20T00:29:43.687Z,0.63
2022-09-20T00:32:43.667Z,0.52
2022-09-20T00:35:43.668Z,0.45
2022-09-20T00:38:43.643Z,0.64
2022-09-20T00:41:43.685Z,0.37
2022-09-20T00:44:43.679Z,0.59
2022-09-20T00:47:43.973Z,0.43
2022-09-20T00:50:43.682Z,0.67
2022-09-20T00:53:43.683Z,0.76
2022-09-20T00:56:43.663Z,0.57
2022-09-20T00:59:43.671Z,0.46
2022-09-20T01:02:43.693Z,0.73
2022-09-20T01:05:43.651Z,0.51
2022-09-20T01:08:43.672Z,0.45
2022-09-20T01:11:43.688Z,0.54
2022-09-20T01:14:43.704Z,0.51
2022-09-20T01:17:43.686Z,0.7
2022-09-20T01:20:43.691Z,0.76
2022-09-20T01:23:43.701Z,0.75
2022-09-20T01:26:43.672Z,0.46
2022-09-20T01:29:43.702Z,0.59
2022-09-20T01:32:43.679Z,0.58
2022-09-20T01:35:43.750Z,0.33
2022-09-20T01:38:43.706Z,0.7
2022-09-20T01:41:43.701Z,0.63
2022-09-20T01:44:43.712Z,0.81
2022-09-20T01:47:43.720Z,0.65
2022-09-20T01:50:43.714Z,0.8
2022-09-20T01:53:43.707Z,0.84
2022-09-20T01:56:43.782Z,0.93
2022-09-20T01:59:43.686Z,0.8
2022-09-20T02:02:43.722Z,0.67
2022-09-20T02:05:43.697Z,0.99
2022-09-20T02:08:43.730Z,0.65
2022-09-20T02:11:43.724Z,0.93
2022-09-20T02:14:43.711Z,0.86
2022-09-20T02:17:43.727Z,0.94
2022-09-20T02:20:43.697Z,0.78
2022-09-20T02:23:43.749Z,1.01
2022-09-20T02:26:43.729Z,0.76
2022-09-20T02:29:43.726Z,0.79
2022-09-20T02:32:43.752Z,0.74
2022-09-20T02:35:43.721Z,0.68
2022-09-20T02:38:43.753Z,0.87
2022-09-20T02:41:43.748Z,0.89
2022-09-20T02:44:43.781Z,0.81
2022-09-20T02:47:43.745Z,0.59
2022-09-20T02:50:43.801Z,0.84
2022-09-20T02:53:43.721Z,0.55
2022-09-20T02:56:43.759Z,0.47
2022-09-20T02:59:43.770Z,0.86
2022-09-20T03:02:43.883Z,0.62
2022-09-20T03:05:43.756Z,0.52
2022-09-20T03:08:43.776Z,0.54
2022-09-20T03:11:43.761Z,0.61
2022-09-20T03:14:43.747Z,0.76
2022-09-20T03:17:43.802Z,0.62
2022-09-20T03:20:43.787Z,0.51
2022-09-20T03:23:43.776Z,0.89
2022-09-20T03:26:43.786Z,0.62
2022-09-20T03:29:43.776Z,0.86
2022-09-20T03:32:43.762Z,0.7
2022-09-20T03:35:43.784Z,0.94
2022-09-20T03:38:43.792Z,0.78
2022-09-20T03:41:43.806Z,0.86
2022-09-20T03:44:43.781Z,0.79
2022-09-20T03:47:43.796Z,0.62
2022-09-20T03:50:43.792Z,0.64
2022-09-20T03:53:43.804Z,0.69
2022-09-20T03:56:43.838Z,0.8
2022-09-20T03:59:43.860Z,0.61
2022-09-20T04:02:43.833Z,0.5
2022-09-20T04:05:43.853Z,0.72
2022-09-20T04:08:43.836Z,0.74
2022-09-20T04:11:43.801Z,0.63
2022-09-20T04:14:43.843Z,0.72
2022-09-20T04:17:43.814Z,0.51
2022-09-20T04:20:43.873Z,0.5
2022-09-20T04:23:43.811Z,0.84
2022-09-20T04:26:43.844Z,0.67
2022-09-20T04:29:43.843Z,0.52
2022-09-20T04:32:43.839Z,0.81
2022-09-20T04:35:43.859Z,0.75
2022-09-20T04:38:43.851Z,0.8
2022-09-20T04:41:43.828Z,0.74
2022-09-20T04:44:43.812Z,0.81
2022-09-20T04:47:43.882Z,0.56
2022-09-20T04:50:43.838Z,0.83
2022-09-20T04:53:43.855Z,0.68
2022-09-20T04:56:43.848Z,0.82
2022-09-20T04:59:43.857Z,0.69
2022-09-20T05:02:43.915Z,0.57
2022-09-20T05:05:43.847Z,0.67
2022-09-20T05:08:43.859Z,0.84
2022-09-20T05:11:43.874Z,0.56
2022-09-20T05:14:43.867Z,0.84
2022-09-20T05:17:43.897Z,0.57
2022-09-20T05:20:43.862Z,0.59
2022-09-20T05:23:43.852Z,0.77
2022-09-20T05:26:43.889Z,0.79
2022-09-20T05:29:43.875Z,0.61
2022-09-20T05:32:43.946Z,0.72
2022-09-20T05:35:43.901Z,0.81
2022-09-20T05:38:43.892Z,0.63
2022-09-20T05:41:43.893Z,0.63
2022-09-20T05:44:43.909Z,0.73
2022-09-20T05:47:43.943Z,0.79
2022-09-20T05:50:43.901Z,0.78
2022-09-20T05:53:43.914Z,0.64
2022-09-20T05:56:43.887Z,0.75
2022-09-20T05:59:43.901Z,0.74
2022-09-20T06:02:43.933Z,0.67
2022-09-20T06:05:43.884Z,0.84
2022-09-20T06:08:43.957Z,0.79
2022-09-20T06:11:45.992Z,0.79
2022-09-20T06:14:43.912Z,0.74
2022-09-20T06:17:43.912Z,0.67
2022-09-20T06:20:44.038Z,0.57
2022-09-20T06:23:43.940Z,0.61
2022-09-20T06:26:43.908Z,0.58
2022-09-20T06:29:43.967Z,0.72
2022-09-20T06:32:43.930Z,0.76
2022-09-20T06:35:43.939Z,0.55
2022-09-20T06:38:43.958Z,0.92
2022-09-20T06:41:43.966Z,0.64
2022-09-20T06:44:43.906Z,0.63
2022-09-20T06:47:43.967Z,0.63
2022-09-20T06:50:43.927Z,0.57
2022-09-20T06:53:43.977Z,0.69
2022-09-20T06:56:43.946Z,0.8
2022-09-20T06:59:43.944Z,0.76
2022-09-20T07:02:43.982Z,1.01
2022-09-20T07:05:43.992Z,0.82
2022-09-20T07:08:44.054Z,0.9
2022-09-20T07:11:43.959Z,0.75
2022-09-20T07:14:43.929Z,0.57
2022-09-20T07:17:43.970Z,0.72
2022-09-20T07:20:43.963Z,0.73
2022-09-20T07:23:43.973Z,0.95
2022-09-20T07:26:44.009Z,0.83
2022-09-20T07:29:43.958Z,0.6
2022-09-20T07:32:43.974Z,0.87
2022-09-20T07:35:44.001Z,0.88
2022-09-20T07:38:44.006Z,0.62
2022-09-20T07:41:44.006Z,0.76
2022-09-20T07:44:43.947Z,0.62
2022-09-20T07:47:44.007Z,0.94
2022-09-20T07:50:43.979Z,0.54
2022-09-20T07:53:43.982Z,0.62
2022-09-20T07:56:44.002Z,0.68
2022-09-20T07:59:44.042Z,0.54
2022-09-20T08:02:44.048Z,0.81
2022-09-20T08:05:43.982Z,0.78
2022-09-20T08:08:44.088Z,0.79
2022-09-20T08:11:44.035Z,0.81
2022-09-20T08:14:44.055Z,0.65
2022-09-20T08:17:44.063Z,0.82
2022-09-20T08:20:43.998Z,0.71
2022-09-20T08:23:44.062Z,0.91
2022-09-20T08:26:44.023Z,0.83
2022-09-20T08:29:44.030Z,0.81
2022-09-20T08:32:44.062Z,0.71
2022-09-20T08:35:44.062Z,0.51
2022-09-20T08:41:44.140Z,1.11
2022-09-20T08:44:46.278Z,0.87
2022-09-20T08:47:44.053Z,1.08
2022-09-20T08:50:44.082Z,1.06
2022-09-20T08:53:49.043Z,1.1
2022-09-20T08:56:44.087Z,0.98
2022-09-20T08:59:44.094Z,0.71
2022-09-20T09:02:44.042Z,0.75
2022-09-20T09:05:44.059Z,0.45
2022-09-20T09:08:44.105Z,0.73
2022-09-20T09:11:45.672Z,0.85
2022-09-20T09:14:44.118Z,0.85
2022-09-20T09:17:44.054Z,1.41
2022-09-20T09:20:44.083Z,1.18
2022-09-20T09:23:44.079Z,0.9
2022-09-20T09:26:44.075Z,0.92
2022-09-20T09:29:44.112Z,1
2022-09-20T09:32:44.147Z,0.99
2022-09-20T09:35:44.083Z,0.86
2022-09-20T09:38:44.079Z,0.8
2022-09-20T09:41:44.113Z,0.87
2022-09-20T09:44:44.116Z,1.11
2022-09-20T09:47:44.077Z,0.73
2022-09-20T09:50:44.109Z,1.11
2022-09-20T09:53:44.107Z,0.98
2022-09-20T09:56:44.092Z,0.78
2022-09-20T09:59:44.219Z,1.06
2022-09-20T10:02:44.129Z,0.87
2022-09-20T10:05:44.138Z,0.79
2022-09-20T10:08:44.172Z,0.93
2022-09-20T10:11:44.113Z,0.98
2022-09-20T10:14:44.085Z,0.69
2022-09-20T10:17:44.245Z,1
2022-09-20T10:20:44.140Z,1.3
2022-09-20T10:24:02.358Z,1.14
2022-09-20T10:26:44.177Z,1.09
2022-09-20T10:29:44.110Z,1.14
2022-09-20T10:32:44.174Z,1.19
2022-09-20T10:35:44.106Z,1.22
2022-09-20T10:38:44.170Z,1.08
2022-09-20T10:41:44.128Z,0.96
2022-09-20T10:44:44.153Z,0.93
2022-09-20T10:47:44.212Z,1.02
2022-09-20T10:50:44.158Z,1.3
2022-09-20T10:53:44.175Z,0.92
2022-09-20T10:56:44.155Z,0.93
2022-09-20T10:59:44.249Z,0.74
2022-09-20T11:02:44.187Z,0.64
2022-09-20T11:05:44.158Z,0.49
2022-09-20T11:08:44.149Z,0.83
2022-09-20T11:11:44.144Z,1.05
2022-09-20T11:14:44.169Z,0.99
2022-09-20T11:17:44.167Z,1.03
2022-09-20T11:20:44.261Z,1.41
2022-09-20T11:23:44.253Z,0.73
2022-09-20T11:26:44.181Z,0.89
2022-09-20T11:29:44.155Z,0.66
2022-09-20T11:32:44.174Z,1.01
2022-09-20T11:35:44.172Z,1.18
2022-09-20T11:38:44.219Z,1.11
2022-09-20T11:41:44.193Z,0.81
2022-09-20T11:44:44.213Z,0.56
2022-09-20T11:47:54.299Z,0.89
2022-09-20T11:50:44.294Z,0.9
2022-09-20T11:53:44.272Z,1.02
2022-09-20T11:56:44.187Z,0.69
2022-09-20T11:59:44.238Z,1.21
2022-09-20T12:02:44.453Z,0.82
2022-09-20T12:05:44.198Z,1.08
2022-09-20T12:08:44.284Z,1.26
2022-09-20T12:11:44.235Z,1.16
2022-09-20T12:14:44.390Z,0.9
2022-09-20T12:17:44.224Z,1.06
2022-09-20T12:20:44.243Z,1.54
2022-09-20T12:23:44.243Z,0.91
2022-09-20T12:26:44.215Z,1.52
2022-09-20T12:29:44.255Z,1.09
2022-09-20T12:32:44.276Z,1.08
2022-09-20T12:35:44.243Z,1.63
2022-09-20T12:38:44.224Z,1.74
2022-09-20T12:41:44.259Z,1.18
2022-09-20T12:44:44.200Z,1.27
2022-09-20T12:47:44.260Z,1.42
2022-09-20T12:50:44.245Z,1.39
2022-09-20T12:53:44.254Z,1.17
2022-09-20T12:56:44.223Z,1.46
2022-09-20T12:59:44.255Z,1.07
2022-09-20T13:02:44.260Z,1.03
2022-09-20T13:05:44.276Z,1.04
2022-09-20T13:08:44.274Z,0.59
2022-09-20T13:11:44.238Z,0.72
2022-09-20T13:14:44.274Z,0.69
2022-09-20T13:17:44.296Z,0.71
2022-09-20T13:20:44.250Z,1.23
2022-09-20T13:23:44.315Z,1.12
2022-09-20T13:26:44.545Z,1.21
2022-09-20T13:29:44.250Z,1.23
2022-09-20T13:32:44.268Z,1.35
2022-09-20T13:35:44.311Z,1.07
2022-09-20T13:38:44.275Z,1.02
2022-09-20T13:41:44.290Z,1.21
2022-09-20T13:44:44.320Z,0.94
2022-09-20T13:47:44.318Z,0.78
2022-09-20T13:50:47.236Z,0.83
2022-09-20T13:53:44.285Z,0.76
2022-09-20T13:56:44.336Z,1
2022-09-20T13:59:44.290Z,1.14
2022-09-20T14:02:44.358Z,0.84
2022-09-20T14:05:44.309Z,0.78
2022-09-20T14:08:44.334Z,0.93
2022-09-20T14:11:44.325Z,0.82
2022-09-20T14:14:44.334Z,0.7
2022-09-20T14:17:44.381Z,0.9
2022-09-20T14:20:44.340Z,0.54
2022-09-20T14:23:44.344Z,1.16
2022-09-20T14:26:44.354Z,1.58
2022-09-20T14:29:44.373Z,1.14
2022-09-20T14:32:44.383Z,0.68
2022-09-20T14:35:44.328Z,0.84
2022-09-20T14:38:44.348Z,0.54
2022-09-20T14:41:44.319Z,0.24
2022-09-20T14:44:44.353Z,0.02
2022-09-20T14:47:44.343Z,0.1
2022-09-20T14:50:44.314Z,0.23
2022-09-20T14:53:44.356Z,0.16
2022-09-20T14:56:44.339Z,0.36
2022-09-20T14:59:44.341Z,0.39
2022-09-20T15:02:44.405Z,0.35
2022-09-20T15:05:44.374Z,0.29
2022-09-20T15:08:46.644Z,0.11
2022-09-20T15:11:44.356Z,0.08
2022-09-20T15:14:44.502Z,0.03
2022-09-20T15:17:44.384Z,0.13
2022-09-20T15:20:44.325Z,0.16
2022-09-20T15:23:44.373Z,0.17
2022-09-20T15:26:44.365Z,0.29
2022-09-20T15:29:44.360Z,0.18
2022-09-20T15:32:44.406Z,0.07
2022-09-20T15:35:44.413Z,0.26
2022-09-20T15:38:44.379Z,0.03
2022-09-20T15:41:44.407Z,0.26
2022-09-20T15:44:44.428Z,0.39
2022-09-20T15:47:44.472Z,0.18
2022-09-20T15:50:44.394Z,0.26
2022-09-20T15:53:44.423Z,0.29
2022-09-20T15:56:44.429Z,0.85
2022-09-20T15:59:44.424Z,0.56
2022-09-20T16:02:44.547Z,0.41
2022-09-20T16:05:44.436Z,0.43
2022-09-20T16:08:44.407Z,0.73
2022-09-20T16:11:44.428Z,0.16
2022-09-20T16:14:44.420Z,0.29
2022-09-20T16:17:44.403Z,0.37
2022-09-20T16:20:44.439Z,0.14
2022-09-20T16:23:44.430Z,0.21
2022-09-20T16:26:44.425Z,0.58
2022-09-20T16:29:44.447Z,0.34
2022-09-20T16:32:44.420Z,0.1
2022-09-20T16:35:44.443Z,0.23
2022-09-20T16:38:44.484Z,0.12
2022-09-20T16:41:44.440Z,0.17
2022-09-20T16:44:44.444Z,0.29
2022-09-20T16:47:44.450Z,0.17
2022-09-20T16:50:44.433Z,0.48
2022-09-20T16:53:44.499Z,0.49
2022-09-20T16:56:44.449Z,0.63
2022-09-20T16:59:46.957Z,0.66
2022-09-20T17:02:47.701Z,0.52
2022-09-20T17:05:44.476Z,0.32
2022-09-20T17:08:44.464Z,0.35
2022-09-20T17:11:44.459Z,0.27
2022-09-20T17:14:44.529Z,0.19
2022-09-20T17:17:44.449Z,0.12
2022-09-20T17:20:44.518Z,0.21
2022-09-20T17:23:47.539Z,0.15
2022-09-20T17:26:44.509Z,0.13
2022-09-20T17:29:44.445Z,0.1
2022-09-20T17:32:44.476Z,0.11
2022-09-20T17:35:44.575Z,0.15
2022-09-20T17:38:44.481Z,0.22
2022-09-20T17:41:44.526Z,0.14
2022-09-20T17:44:44.494Z,0.22
2022-09-20T17:47:44.501Z,0.18
2022-09-20T17:50:44.494Z,0.25
2022-09-20T17:53:44.495Z,0.16
2022-09-20T17:56:44.509Z,0.34
2022-09-20T17:59:44.469Z,0.39
2022-09-20T18:02:44.494Z,0.15
2022-09-20T18:05:44.489Z,0.17
2022-09-20T18:08:44.569Z,0.23
2022-09-20T18:11:44.475Z,0.27
2022-09-20T18:14:44.607Z,0.25
2022-09-20T18:17:44.540Z,0.01
2022-09-20T18:20:44.514Z,0.03
2022-09-20T18:23:44.506Z,0.05
2022-09-20T18:26:44.531Z,0.16
2022-09-20T18:29:44.517Z,1.16
2022-09-20T18:32:44.550Z,0.52
2022-09-20T18:35:44.527Z,0.39
2022-09-20T18:38:44.510Z,0.21
2022-09-20T18:41:44.539Z,0.26
2022-09-20T18:44:44.564Z,0.26
2022-09-20T18:47:44.521Z,0.05
2022-09-20T18:50:44.567Z,0.13
2022-09-20T18:53:44.552Z,0.01
2022-09-20T18:56:44.530Z,0.25
2022-09-20T18:59:53.982Z,0.28
2022-09-20T19:02:44.540Z,0.06
2022-09-20T19:05:44.556Z,0.19
2022-09-20T19:08:44.576Z,0.35
2022-09-20T19:11:44.597Z,0.32
2022-09-20T19:14:44.544Z,0.29
2022-09-20T19:17:44.574Z,0.5
2022-09-20T19:20:44.649Z,0.66
2022-09-20T19:23:44.597Z,0.47
2022-09-20T19:26:44.578Z,0.25
2022-09-20T19:29:44.592Z,0.24
2022-09-20T19:32:44.570Z,0.3
2022-09-20T19:35:48.772Z,0.33
2022-09-20T19:38:44.614Z,0.31
2022-09-20T19:41:44.587Z,0.21
2022-09-20T19:44:44.571Z,0.2
2022-09-20T19:47:44.668Z,0.02
2022-09-20T19:50:44.689Z,0.29
2022-09-20T19:53:44.614Z,0.17
2022-09-20T19:56:44.690Z,0.17
2022-09-20T19:59:44.570Z,0.34
2022-09-20T20:02:44.618Z,0.42
2022-09-20T20:05:44.607Z,0.29
2022-09-20T20:08:44.607Z,0.37
2022-09-20T20:11:44.590Z,0.32
2022-09-20T20:14:44.595Z,0.39
2022-09-20T20:17:44.586Z,0.29
2022-09-20T20:20:44.622Z,0.17
2022-09-20T20:23:44.601Z,0.09
2022-09-20T20:26:44.626Z,0
2022-09-20T20:29:44.650Z,0.06
2022-09-20T20:32:44.605Z,0.04
2022-09-20T20:35:44.635Z,0.01
2022-09-20T20:38:44.600Z,0.13
2022-09-20T20:41:44.652Z,0.11
2022-09-20T20:44:44.639Z,0.14
2022-09-20T20:47:44.646Z,0.14
2022-09-20T20:50:44.609Z,0.2
2022-09-20T20:53:44.641Z,0.27
2022-09-20T20:56:44.625Z,0.24
2022-09-20T20:59:44.676Z,0.14
2022-09-20T21:02:44.676Z,0.16
2022-09-20T21:05:44.640Z,0.26
2022-09-20T21:08:48.398Z,0.28
2022-09-20T21:11:44.732Z,0.16
2022-09-20T21:14:44.646Z,0.26
2022-09-20T21:17:44.672Z,0.21
2022-09-20T21:20:44.622Z,0.01
2022-09-20T21:23:44.674Z,0
2022-09-20T21:26:44.763Z,0.01
2022-09-20T21:29:44.661Z,0
2022-09-20T21:32:44.682Z,0
2022-09-20T21:35:44.687Z,0
2022-09-20T21:38:44.725Z,0
2022-09-20T21:41:44.694Z,0
2022-09-20T21:44:44.706Z,0
2022-09-20T21:47:44.692Z,0
2022-09-20T21:50:44.687Z,0
2022-09-20T21:53:44.670Z,0
2022-09-20T21:56:44.663Z,0
2022-09-20T21:59:44.684Z,0
2022-09-20T22:02:44.693Z,0
2022-09-20T22:05:44.671Z,0
2022-09-20T22:08:44.731Z,0
2022-09-20T22:11:44.760Z,0
2022-09-20T22:14:44.668Z,0
2022-09-20T22:17:44.679Z,0
2022-09-20T22:20:44.685Z,0
2022-09-20T22:23:44.707Z,0
2022-09-20T22:26:44.720Z,0
2022-09-20T22:29:44.681Z,0
2022-09-20T22:32:44.717Z,0
2022-09-20T22:35:44.701Z,0
2022-09-20T22:38:44.687Z,0
2022-09-20T22:41:44.746Z,0
2022-09-20T22:44:44.706Z,0
2022-09-20T22:47:44.711Z,0
2022-09-20T22:50:44.767Z,0
2022-09-20T22:53:44.724Z,0
2022-09-20T22:56:44.734Z,0.02
2022-09-20T22:59:44.717Z,0.01
2022-09-20T23:02:44.751Z,0
2022-09-20T23:05:44.721Z,0.07
2022-09-20T23:08:44.742Z,0.01
2022-09-20T23:11:44.759Z,0.08
2022-09-20T23:14:44.780Z,0.02
2022-09-20T23:17:44.741Z,0.06
2022-09-20T23:20:44.750Z,0
2022-09-20T23:23:44.741Z,0.01
2022-09-20T23:26:44.808Z,0
2022-09-20T23:29:44.739Z,0.01
2022-09-20T23:32:44.775Z,0.01
2022-09-20T23:35:44.744Z,0
2022-09-20T23:38:44.770Z,0
2022-09-20T23:41:48.529Z,0
2022-09-20T23:44:44.743Z,0
2022-09-20T23:47:44.765Z,0
2022-09-20T23:50:44.744Z,0
2022-09-20T23:53:44.766Z,0.09
2022-09-20T23:56:44.861Z,0.01
2022-09-20T23:59:44.791Z,0
